DLH1KE EDDB-EDDM
Flight info
| Callsign | DLH1KE |
|---|---|
| Flight time | 0h 45m |
| Altitude | 28000 |
| Route | LUROS3Q/06R LUROS Y211 BEBKU Z36 MAREM DCT VESUB T106 TUSTO T108 LANDU LANDU2A |
| Aircraft | A321/M-SDE3FGHIRWY/LB1 |
Departure
| Time | 2026-05-07 21:07 |
|---|---|
| Airport | Berlin Brandenburg Airport (EDDB) |
Arrival
| Time | 2026-05-07 21:52 |
|---|---|
| Airport | Munich Airport (EDDM) |
| Time | Latitude | Longitude | Altitude | Speed | Heading |
|---|---|---|---|---|---|
| 2026-05-07 20:45 | 52.36503 | 13.50514 | 155 ft | 0 kts | 69° |
| 2026-05-07 20:58 | 52.36497 | 13.50487 | 155 ft | 4 kts | 69° |
| 2026-05-07 20:59 | 52.36488 | 13.50449 | 155 ft | 2 kts | 69° |
| 2026-05-07 20:59 | 52.36482 | 13.50413 | 155 ft | 4 kts | 94° |
| 2026-05-07 20:59 | 52.36490 | 13.50376 | 155 ft | 4 kts | 140° |
| 2026-05-07 20:59 | 52.36500 | 13.50364 | 155 ft | 0 kts | 159° |
| 2026-05-07 21:02 | 52.36452 | 13.50395 | 155 ft | 15 kts | 158° |
| 2026-05-07 21:02 | 52.36317 | 13.50481 | 155 ft | 23 kts | 159° |
| 2026-05-07 21:02 | 52.36159 | 13.50581 | 155 ft | 25 kts | 159° |
| 2026-05-07 21:03 | 52.35990 | 13.50688 | 155 ft | 27 kts | 159° |
| 2026-05-07 21:03 | 52.35839 | 13.50774 | 155 ft | 19 kts | 165° |
| 2026-05-07 21:03 | 52.35786 | 13.50680 | 155 ft | 12 kts | 247° |
| 2026-05-07 21:03 | 52.35743 | 13.50497 | 155 ft | 22 kts | 249° |
| 2026-05-07 21:04 | 52.35672 | 13.50196 | 155 ft | 31 kts | 248° |
| 2026-05-07 21:04 | 52.35596 | 13.49877 | 155 ft | 30 kts | 249° |
| 2026-05-07 21:04 | 52.35518 | 13.49554 | 155 ft | 30 kts | 249° |
| 2026-05-07 21:04 | 52.35462 | 13.49312 | 154 ft | 17 kts | 248° |
| 2026-05-07 21:05 | 52.35405 | 13.49176 | 154 ft | 14 kts | 193° |
| 2026-05-07 21:05 | 52.35319 | 13.49220 | 154 ft | 14 kts | 158° |
| 2026-05-07 21:05 | 52.35250 | 13.49306 | 154 ft | 13 kts | 108° |
| 2026-05-07 21:05 | 52.35240 | 13.49397 | 154 ft | 13 kts | 98° |
| 2026-05-07 21:06 | 52.35224 | 13.49553 | 154 ft | 16 kts | 99° |
| 2026-05-07 21:06 | 52.35260 | 13.49861 | 155 ft | 54 kts | 68° |
| 2026-05-07 21:06 | 52.35498 | 13.50868 | 155 ft | 133 kts | 69° |
| 2026-05-07 21:06 | 52.35876 | 13.52476 | 638 ft | 154 kts | 69° |
| 2026-05-07 21:07 | 52.35756 | 13.54171 | 1381 ft | 161 kts | 127° |
| 2026-05-07 21:07 | 52.34761 | 13.55066 | 2135 ft | 165 kts | 156° |
| 2026-05-07 21:07 | 52.33762 | 13.55822 | 2977 ft | 154 kts | 144° |
| 2026-05-07 21:07 | 52.32854 | 13.56911 | 3530 ft | 169 kts | 135° |
| 2026-05-07 21:08 | 52.31969 | 13.58359 | 3982 ft | 191 kts | 131° |
| 2026-05-07 21:08 | 52.31106 | 13.60115 | 4431 ft | 205 kts | 115° |
| 2026-05-07 21:08 | 52.30801 | 13.62408 | 5056 ft | 216 kts | 85° |
| 2026-05-07 21:08 | 52.31186 | 13.64835 | 5684 ft | 227 kts | 72° |
| 2026-05-07 21:09 | 52.31327 | 13.67417 | 6474 ft | 234 kts | 101° |
| 2026-05-07 21:09 | 52.30626 | 13.69824 | 7252 ft | 240 kts | 131° |
| 2026-05-07 21:09 | 52.29234 | 13.71343 | 8041 ft | 247 kts | 162° |
| 2026-05-07 21:09 | 52.27516 | 13.71591 | 8848 ft | 251 kts | 181° |
| 2026-05-07 21:10 | 52.25760 | 13.71481 | 9692 ft | 255 kts | 182° |
| 2026-05-07 21:10 | 52.23976 | 13.71360 | 10479 ft | 258 kts | 182° |
| 2026-05-07 21:10 | 52.22174 | 13.71242 | 11231 ft | 261 kts | 182° |
| 2026-05-07 21:10 | 52.20298 | 13.71123 | 11642 ft | 281 kts | 182° |
| 2026-05-07 21:11 | 52.18260 | 13.71000 | 11912 ft | 305 kts | 182° |
| 2026-05-07 21:11 | 52.16064 | 13.70873 | 12121 ft | 328 kts | 182° |
| 2026-05-07 21:11 | 52.11241 | 13.70610 | 12866 ft | 357 kts | 182° |
| 2026-05-07 21:12 | 52.08737 | 13.70475 | 13548 ft | 362 kts | 182° |
| 2026-05-07 21:12 | 52.06213 | 13.70334 | 14220 ft | 365 kts | 182° |
| 2026-05-07 21:12 | 52.03660 | 13.70187 | 14835 ft | 369 kts | 182° |
| 2026-05-07 21:12 | 52.01079 | 13.70040 | 15441 ft | 373 kts | 182° |
| 2026-05-07 21:13 | 51.98465 | 13.69887 | 16052 ft | 377 kts | 182° |
| 2026-05-07 21:13 | 51.95835 | 13.69733 | 16657 ft | 381 kts | 182° |
| 2026-05-07 21:13 | 51.93167 | 13.69580 | 17287 ft | 385 kts | 182° |
| 2026-05-07 21:13 | 51.90480 | 13.69424 | 17892 ft | 388 kts | 182° |
| 2026-05-07 21:14 | 51.87766 | 13.69270 | 18474 ft | 392 kts | 182° |
| 2026-05-07 21:14 | 51.85026 | 13.69116 | 18982 ft | 396 kts | 182° |
| 2026-05-07 21:14 | 51.82261 | 13.68961 | 19484 ft | 399 kts | 182° |
| 2026-05-07 21:14 | 51.79477 | 13.68805 | 19986 ft | 402 kts | 182° |
| 2026-05-07 21:15 | 51.76665 | 13.68645 | 20488 ft | 406 kts | 182° |
| 2026-05-07 21:15 | 51.73830 | 13.68486 | 20987 ft | 409 kts | 182° |
| 2026-05-07 21:15 | 51.70972 | 13.68329 | 21497 ft | 412 kts | 182° |
| 2026-05-07 21:15 | 51.68103 | 13.68173 | 22032 ft | 414 kts | 182° |
| 2026-05-07 21:16 | 51.65211 | 13.68015 | 22527 ft | 417 kts | 182° |
| 2026-05-07 21:16 | 51.62297 | 13.67855 | 23009 ft | 421 kts | 182° |
| 2026-05-07 21:16 | 51.59352 | 13.67689 | 23481 ft | 425 kts | 182° |
| 2026-05-07 21:16 | 51.56389 | 13.67517 | 23902 ft | 428 kts | 182° |
| 2026-05-07 21:17 | 51.53402 | 13.67347 | 24322 ft | 431 kts | 182° |
| 2026-05-07 21:17 | 51.50395 | 13.67181 | 24740 ft | 433 kts | 182° |
| 2026-05-07 21:17 | 51.47375 | 13.67016 | 25150 ft | 436 kts | 182° |
| 2026-05-07 21:17 | 51.44337 | 13.66853 | 25549 ft | 439 kts | 182° |
| 2026-05-07 21:18 | 51.41275 | 13.66690 | 25951 ft | 441 kts | 182° |
| 2026-05-07 21:18 | 51.38191 | 13.66520 | 26357 ft | 444 kts | 182° |
| 2026-05-07 21:18 | 51.35057 | 13.66344 | 26779 ft | 447 kts | 182° |
| 2026-05-07 21:18 | 51.31981 | 13.66171 | 27162 ft | 449 kts | 182° |
| 2026-05-07 21:19 | 51.28806 | 13.65995 | 27564 ft | 452 kts | 182° |
| 2026-05-07 21:19 | 51.25653 | 13.65822 | 27954 ft | 454 kts | 182° |
| 2026-05-07 21:19 | 51.22485 | 13.65646 | 28328 ft | 457 kts | 183° |
| 2026-05-07 21:19 | 51.19335 | 13.65471 | 28688 ft | 460 kts | 183° |
| 2026-05-07 21:20 | 51.16082 | 13.65288 | 29049 ft | 463 kts | 183° |
| 2026-05-07 21:20 | 51.12862 | 13.65112 | 29395 ft | 465 kts | 183° |
| 2026-05-07 21:20 | 51.09636 | 13.64938 | 29946 ft | 462 kts | 183° |
| 2026-05-07 21:20 | 51.06422 | 13.64764 | 30095 ft | 461 kts | 183° |
| 2026-05-07 21:21 | 51.00026 | 13.64417 | 30101 ft | 460 kts | 183° |
| 2026-05-07 21:21 | 50.93634 | 13.64076 | 30096 ft | 459 kts | 183° |
| 2026-05-07 21:22 | 50.87247 | 13.63730 | 30089 ft | 459 kts | 183° |
| 2026-05-07 21:22 | 50.80857 | 13.63378 | 30090 ft | 460 kts | 183° |
| 2026-05-07 21:23 | 50.74461 | 13.63037 | 30071 ft | 460 kts | 184° |
| 2026-05-07 21:23 | 50.68226 | 13.61235 | 30059 ft | 455 kts | 200° |
| 2026-05-07 21:24 | 50.62189 | 13.58197 | 30064 ft | 455 kts | 200° |
| 2026-05-07 21:24 | 50.56152 | 13.55196 | 30063 ft | 456 kts | 200° |
| 2026-05-07 21:25 | 50.50108 | 13.52206 | 30054 ft | 455 kts | 200° |
| 2026-05-07 21:25 | 50.44071 | 13.49214 | 30075 ft | 455 kts | 200° |
| 2026-05-07 21:26 | 50.38039 | 13.46224 | 30079 ft | 455 kts | 200° |
| 2026-05-07 21:26 | 50.32002 | 13.43248 | 30077 ft | 455 kts | 200° |
| 2026-05-07 21:27 | 50.25974 | 13.40287 | 30075 ft | 454 kts | 200° |
| 2026-05-07 21:27 | 50.19942 | 13.37323 | 30071 ft | 454 kts | 200° |
| 2026-05-07 21:28 | 50.13911 | 13.34371 | 30064 ft | 454 kts | 200° |
| 2026-05-07 21:28 | 50.07883 | 13.31426 | 30066 ft | 453 kts | 200° |
| 2026-05-07 21:29 | 50.01870 | 13.28508 | 30076 ft | 452 kts | 200° |
| 2026-05-07 21:29 | 49.95916 | 13.25624 | 30077 ft | 451 kts | 200° |
| 2026-05-07 21:30 | 49.89937 | 13.22726 | 30082 ft | 451 kts | 200° |
| 2026-05-07 21:30 | 49.83955 | 13.19834 | 30086 ft | 449 kts | 200° |
| 2026-05-07 21:31 | 49.78119 | 13.17023 | 30098 ft | 448 kts | 200° |
| 2026-05-07 21:31 | 49.72167 | 13.14172 | 30097 ft | 447 kts | 200° |
| 2026-05-07 21:32 | 49.66231 | 13.11325 | 30057 ft | 446 kts | 200° |
| 2026-05-07 21:32 | 49.60305 | 13.08492 | 30066 ft | 445 kts | 200° |
| 2026-05-07 21:33 | 49.54396 | 13.05671 | 30070 ft | 444 kts | 200° |
| 2026-05-07 21:33 | 49.48493 | 13.02867 | 30067 ft | 444 kts | 200° |
| 2026-05-07 21:34 | 49.45537 | 13.01463 | 29850 ft | 445 kts | 200° |
| 2026-05-07 21:34 | 49.42592 | 13.00042 | 29123 ft | 441 kts | 202° |
| 2026-05-07 21:34 | 49.39803 | 12.98202 | 28427 ft | 433 kts | 208° |
| 2026-05-07 21:34 | 49.37096 | 12.96212 | 27740 ft | 429 kts | 208° |
| 2026-05-07 21:35 | 49.34419 | 12.94255 | 27075 ft | 425 kts | 208° |
| 2026-05-07 21:35 | 49.31755 | 12.92317 | 26317 ft | 423 kts | 208° |
| 2026-05-07 21:35 | 49.29120 | 12.90404 | 25600 ft | 420 kts | 208° |
| 2026-05-07 21:35 | 49.26470 | 12.88486 | 24900 ft | 418 kts | 208° |
| 2026-05-07 21:36 | 49.23854 | 12.86592 | 24217 ft | 415 kts | 208° |
| 2026-05-07 21:36 | 49.21260 | 12.84711 | 23539 ft | 411 kts | 208° |
| 2026-05-07 21:36 | 49.18684 | 12.82843 | 22786 ft | 407 kts | 208° |
| 2026-05-07 21:36 | 49.16133 | 12.80995 | 22032 ft | 404 kts | 208° |
| 2026-05-07 21:37 | 49.13607 | 12.79165 | 21295 ft | 401 kts | 208° |
| 2026-05-07 21:37 | 49.11096 | 12.77354 | 20591 ft | 397 kts | 208° |
| 2026-05-07 21:37 | 49.08611 | 12.75564 | 19939 ft | 393 kts | 208° |
| 2026-05-07 21:37 | 49.06148 | 12.73790 | 19331 ft | 389 kts | 208° |
| 2026-05-07 21:38 | 49.03716 | 12.72034 | 18745 ft | 384 kts | 208° |
| 2026-05-07 21:38 | 49.01309 | 12.70300 | 18134 ft | 380 kts | 208° |
| 2026-05-07 21:38 | 48.98932 | 12.68593 | 17434 ft | 377 kts | 208° |
| 2026-05-07 21:38 | 48.96565 | 12.66897 | 16748 ft | 374 kts | 208° |
| 2026-05-07 21:39 | 48.94223 | 12.65222 | 16083 ft | 370 kts | 208° |
| 2026-05-07 21:39 | 48.91903 | 12.63562 | 15419 ft | 366 kts | 208° |
| 2026-05-07 21:39 | 48.89614 | 12.61921 | 14787 ft | 362 kts | 208° |
| 2026-05-07 21:39 | 48.87346 | 12.60297 | 14166 ft | 359 kts | 207° |
| 2026-05-07 21:40 | 48.85098 | 12.58680 | 13528 ft | 355 kts | 207° |
| 2026-05-07 21:40 | 48.82880 | 12.57082 | 12853 ft | 351 kts | 208° |
| 2026-05-07 21:40 | 48.80686 | 12.55528 | 12239 ft | 345 kts | 208° |
| 2026-05-07 21:40 | 48.78517 | 12.54002 | 11655 ft | 340 kts | 208° |
| 2026-05-07 21:41 | 48.76396 | 12.52516 | 11159 ft | 333 kts | 208° |
| 2026-05-07 21:41 | 48.74309 | 12.51062 | 10685 ft | 326 kts | 207° |
| 2026-05-07 21:41 | 48.72290 | 12.49663 | 10441 ft | 313 kts | 208° |
| 2026-05-07 21:41 | 48.70346 | 12.48328 | 10192 ft | 301 kts | 207° |
| 2026-05-07 21:42 | 48.68483 | 12.47058 | 10113 ft | 285 kts | 207° |
| 2026-05-07 21:42 | 48.66722 | 12.45870 | 10064 ft | 270 kts | 207° |
| 2026-05-07 21:42 | 48.65041 | 12.44748 | 9899 ft | 260 kts | 207° |
| 2026-05-07 21:42 | 48.63401 | 12.43658 | 9630 ft | 255 kts | 207° |
| 2026-05-07 21:43 | 48.61794 | 12.42586 | 9350 ft | 249 kts | 207° |
| 2026-05-07 21:43 | 48.60225 | 12.41534 | 9086 ft | 244 kts | 207° |
| 2026-05-07 21:43 | 48.58686 | 12.40499 | 8826 ft | 240 kts | 207° |
| 2026-05-07 21:43 | 48.57173 | 12.39479 | 8575 ft | 235 kts | 207° |
| 2026-05-07 21:44 | 48.56177 | 12.38797 | 8437 ft | 230 kts | 210° |
| 2026-05-07 21:44 | 48.54957 | 12.37366 | 8224 ft | 218 kts | 231° |
| 2026-05-07 21:44 | 48.53974 | 12.35674 | 8029 ft | 212 kts | 231° |
| 2026-05-07 21:44 | 48.53009 | 12.34008 | 7850 ft | 210 kts | 231° |
| 2026-05-07 21:45 | 48.52052 | 12.32351 | 7685 ft | 210 kts | 231° |
| 2026-05-07 21:45 | 48.51094 | 12.30693 | 7507 ft | 209 kts | 231° |
| 2026-05-07 21:45 | 48.50137 | 12.29041 | 7337 ft | 209 kts | 231° |
| 2026-05-07 21:45 | 48.49180 | 12.27386 | 7158 ft | 209 kts | 231° |
| 2026-05-07 21:46 | 48.48227 | 12.25738 | 6988 ft | 209 kts | 231° |
| 2026-05-07 21:46 | 48.47271 | 12.24085 | 6807 ft | 209 kts | 231° |
| 2026-05-07 21:46 | 48.46320 | 12.22439 | 6611 ft | 208 kts | 231° |
| 2026-05-07 21:46 | 48.45366 | 12.20794 | 6411 ft | 208 kts | 231° |
| 2026-05-07 21:47 | 48.44412 | 12.19153 | 6199 ft | 208 kts | 230° |
| 2026-05-07 21:47 | 48.43462 | 12.17519 | 6001 ft | 208 kts | 230° |
| 2026-05-07 21:47 | 48.42505 | 12.15873 | 5779 ft | 209 kts | 230° |
| 2026-05-07 21:47 | 48.41547 | 12.14227 | 5585 ft | 209 kts | 230° |
| 2026-05-07 21:48 | 48.40590 | 12.12583 | 5380 ft | 209 kts | 230° |
| 2026-05-07 21:48 | 48.39631 | 12.10936 | 5179 ft | 209 kts | 230° |
| 2026-05-07 21:48 | 48.38859 | 12.09106 | 5007 ft | 208 kts | 248° |
| 2026-05-07 21:48 | 48.38547 | 12.06990 | 4766 ft | 208 kts | 263° |
| 2026-05-07 21:49 | 48.38390 | 12.04828 | 4490 ft | 207 kts | 263° |
| 2026-05-07 21:49 | 48.38234 | 12.02706 | 4215 ft | 202 kts | 263° |
| 2026-05-07 21:49 | 48.38081 | 12.00631 | 3949 ft | 196 kts | 263° |
| 2026-05-07 21:49 | 48.37934 | 11.98667 | 3693 ft | 184 kts | 263° |
| 2026-05-07 21:50 | 48.37793 | 11.96782 | 3454 ft | 179 kts | 263° |
| 2026-05-07 21:50 | 48.37654 | 11.94927 | 3209 ft | 178 kts | 263° |
| 2026-05-07 21:50 | 48.37516 | 11.93083 | 2969 ft | 178 kts | 264° |
| 2026-05-07 21:50 | 48.37379 | 11.91264 | 2729 ft | 170 kts | 264° |
| 2026-05-07 21:51 | 48.37252 | 11.89581 | 2509 ft | 155 kts | 264° |
| 2026-05-07 21:51 | 48.37135 | 11.88030 | 2288 ft | 145 kts | 264° |
| 2026-05-07 21:51 | 48.37022 | 11.86544 | 2087 ft | 141 kts | 264° |
| 2026-05-07 21:51 | 48.36916 | 11.85076 | 1968 ft | 141 kts | 264° |
| 2026-05-07 21:52 | 48.36805 | 11.83610 | 1751 ft | 139 kts | 263° |
| 2026-05-07 21:52 | 48.36693 | 11.82176 | 1526 ft | 138 kts | 264° |
| 2026-05-07 21:52 | 48.36590 | 11.80837 | 1466 ft | 114 kts | 264° |
| 2026-05-07 21:52 | 48.36532 | 11.80070 | 1464 ft | 48 kts | 263° |
| 2026-05-07 21:53 | 48.36468 | 11.79743 | 1464 ft | 25 kts | 237° |
| 2026-05-07 21:53 | 48.36370 | 11.79542 | 1465 ft | 18 kts | 234° |
| 2026-05-07 21:53 | 48.36294 | 11.79390 | 1464 ft | 17 kts | 232° |
| 2026-05-07 21:53 | 48.36203 | 11.79299 | 1468 ft | 14 kts | 179° |
| 2026-05-07 21:54 | 48.36097 | 11.79315 | 1466 ft | 17 kts | 173° |
| 2026-05-07 21:54 | 48.35977 | 11.79337 | 1460 ft | 18 kts | 173° |
| 2026-05-07 21:54 | 48.35902 | 11.79387 | 1463 ft | 11 kts | 110° |
| 2026-05-07 21:54 | 48.35879 | 11.79508 | 1462 ft | 13 kts | 137° |
| 2026-05-07 21:55 | 48.35782 | 11.79535 | 1459 ft | 15 kts | 174° |
| 2026-05-07 21:55 | 48.35667 | 11.79555 | 1462 ft | 18 kts | 173° |
| 2026-05-07 21:55 | 48.35535 | 11.79578 | 1467 ft | 20 kts | 174° |
| 2026-05-07 21:55 | 48.35397 | 11.79602 | 1464 ft | 18 kts | 174° |
| 2026-05-07 21:56 | 48.35279 | 11.79620 | 1465 ft | 5 kts | 174° |
| 2026-05-07 21:56 | 48.35269 | 11.79622 | 1467 ft | 0 kts | 173° |
| 2026-05-07 21:56 | 48.35285 | 11.79619 | 1463 ft | 5 kts | 173° |
| 2026-05-07 21:56 | 48.35294 | 11.79617 | 1464 ft | 1 kts | 173° |
| 2026-05-07 21:57 | 48.35269 | 11.79622 | 1467 ft | 7 kts | 173° |
| 2026-05-07 21:57 | 48.35214 | 11.79625 | 1467 ft | 8 kts | 203° |
| 2026-05-07 21:57 | 48.35224 | 11.79560 | 1463 ft | 8 kts | 347° |
| 2026-05-07 21:57 | 48.35289 | 11.79562 | 1467 ft | 11 kts | 27° |
| 2026-05-07 21:58 | 48.35312 | 11.79671 | 1467 ft | 12 kts | 82° |
| 2026-05-07 21:58 | 48.35321 | 11.79759 | 1467 ft | 2 kts | 83° |